Time;durP1;ratioP1;P1;durP2;ratioP2;P2;SDS_P1;SDS_P2;PMS_P1;PMS_P2;Temp;Humidity;BMP_temperature;BMP_pressure;BME280_temperature;BME280_humidity;BME280_pressure;Samples;Min_cycle;Max_cycle;Signal;HPM_P1;HPM_P2
2023/05/11 00:00:06;;;;;;;3.60;1.90;;;;;;;14.07;48.39;99290.81;4972763;28;20046;-76
2023/05/11 00:02:31;;;;;;;3.63;1.90;;;;;;;14.04;48.51;99296.31;4974517;28;20041;-76
2023/05/11 00:04:57;;;;;;;5.47;2.00;;;;;;;13.99;48.57;99298.50;4972982;28;20042;-76
2023/05/11 00:07:23;;;;;;;4.00;1.80;;;;;;;14.01;48.71;99289.53;4957104;28;20034;-76
2023/05/11 00:09:48;;;;;;;4.45;1.95;;;;;;;13.96;48.74;99293.50;4972557;28;20039;-76
2023/05/11 00:12:14;;;;;;;7.88;2.67;;;;;;;13.94;49.14;99296.25;4956867;28;20094;-75
2023/05/11 00:14:39;;;;;;;5.32;2.05;;;;;;;13.96;48.88;99302.19;4972495;28;20105;-76
2023/05/11 00:17:05;;;;;;;3.92;2.03;;;;;;;13.91;49.12;99299.94;4972443;28;20039;-76
2023/05/11 00:19:31;;;;;;;3.80;1.88;;;;;;;13.91;49.00;99301.75;4956589;28;20101;-75
2023/05/11 00:22:00;;;;;;;3.72;1.80;;;;;;;13.93;49.19;99303.28;4956851;28;20511;-75
2023/05/11 00:24:25;;;;;;;6.05;2.22;;;;;;;13.94;49.30;99306.75;4956836;28;20049;-76
2023/05/11 00:26:51;;;;;;;3.58;1.92;;;;;;;13.94;49.23;99306.75;4972527;28;20038;-75
2023/05/11 00:29:16;;;;;;;3.53;2.13;;;;;;;13.94;48.98;99309.38;4973669;28;20042;-76
2023/05/11 00:31:46;;;;;;;4.32;1.83;;;;;;;13.93;48.98;99308.53;4972449;28;20062;-76
2023/05/11 00:34:12;;;;;;;8.27;2.00;;;;;;;13.95;49.33;99311.03;4957315;28;20047;-75
2023/05/11 00:36:38;;;;;;;4.90;1.77;;;;;;;13.97;49.22;99313.53;4956665;28;20089;-76
2023/05/11 00:39:04;;;;;;;3.80;1.92;;;;;;;13.98;49.19;99307.31;4940213;28;20038;-76
2023/05/11 00:41:30;;;;;;;6.53;1.90;;;;;;;13.93;48.90;99308.53;4972393;28;20042;-76
2023/05/11 00:43:55;;;;;;;4.88;1.95;;;;;;;13.95;49.35;99313.66;4956446;28;20470;-76
2023/05/11 00:46:21;;;;;;;5.68;1.90;;;;;;;13.94;49.20;99312.00;4988598;28;20545;-76
2023/05/11 00:48:47;;;;;;;4.03;1.95;;;;;;;13.92;49.23;99314.72;4988769;28;20051;-76
2023/05/11 00:51:12;;;;;;;5.32;2.10;;;;;;;13.90;49.22;99311.41;4940167;28;20038;-76
2023/05/11 00:53:38;;;;;;;3.53;2.20;;;;;;;13.89;49.18;99314.16;4972249;28;20113;-76
2023/05/11 00:56:03;;;;;;;3.67;1.98;;;;;;;13.87;49.26;99314.28;4956292;28;20046;-76
2023/05/11 00:58:30;;;;;;;8.15;2.28;;;;;;;13.84;49.57;99317.16;4972511;28;20045;-76
2023/05/11 01:00:55;;;;;;;3.63;2.33;;;;;;;13.81;49.49;99311.31;4972355;28;20037;-76
2023/05/11 01:03:21;;;;;;;5.15;2.25;;;;;;;13.80;49.53;99322.78;4972306;28;20043;-76
2023/05/11 01:05:56;;;;;;;7.18;2.00;;;;;;;13.75;49.58;99310.00;4971897;28;20042;-76
2023/05/11 01:08:38;;;;;;;4.28;1.80;;;;;;;13.69;49.43;99313.94;4973276;28;20534;-76
2023/05/11 01:11:27;;;;;;;2.85;1.90;;;;;;;13.68;49.36;99321.97;4960546;28;20041;-76
2023/05/11 01:13:55;;;;;;;6.45;2.15;;;;;;;13.69;49.56;99319.19;4976311;28;20031;-76
2023/05/11 01:16:23;;;;;;;4.97;2.10;;;;;;;13.69;49.91;99327.06;4960391;28;20038;-76
2023/05/11 01:19:11;;;;;;;5.28;1.98;;;;;;;13.63;49.97;99321.50;4976266;28;20038;-76
2023/05/11 01:21:37;;;;;;;4.97;2.10;;;;;;;13.65;49.60;99319.59;4959378;28;20051;-76
2023/05/11 01:24:20;;;;;;;4.63;2.00;;;;;;;13.65;50.06;99324.84;4960294;28;20069;-76
2023/05/11 01:27:20;;;;;;;3.72;2.13;;;;;;;13.57;50.28;99317.59;4977506;28;20043;-76
2023/05/11 01:30:12;;;;;;;3.80;2.00;;;;;;;13.61;49.86;99323.41;4975797;28;20035;-76
2023/05/11 01:32:38;;;;;;;3.40;2.10;;;;;;;13.54;49.83;99318.66;4976092;28;20027;-76
2023/05/11 01:35:06;;;;;;;4.85;2.15;;;;;;;13.51;50.02;99315.44;4976955;28;20038;-76
2023/05/11 01:37:32;;;;;;;6.18;2.10;;;;;;;13.52;50.17;99315.31;4959831;28;20126;-76
2023/05/11 01:40:00;;;;;;;4.03;2.30;;;;;;;13.49;49.87;99305.06;4959528;28;20125;-76
2023/05/11 01:42:29;;;;;;;4.25;2.00;;;;;;;13.47;50.29;99308.75;4959928;28;20039;-77
2023/05/11 01:44:55;;;;;;;4.05;2.00;;;;;;;13.46;50.18;99312.34;4960252;28;20039;-77
2023/05/11 01:47:24;;;;;;;4.35;2.22;;;;;;;13.39;50.22;99296.25;4975684;28;20514;-76
2023/05/11 01:49:50;;;;;;;4.53;1.95;;;;;;;13.43;50.53;99305.56;4943507;28;20510;-76
2023/05/11 01:52:15;;;;;;;5.50;2.20;;;;;;;13.41;50.38;99309.25;4991508;28;20121;-76
2023/05/11 01:54:41;;;;;;;3.58;1.92;;;;;;;13.36;50.34;99293.88;4974909;28;20046;-76
2023/05/11 01:57:06;;;;;;;4.97;2.00;;;;;;;13.32;50.54;99282.75;4975261;28;20502;-76
2023/05/11 01:59:32;;;;;;;6.15;1.90;;;;;;;13.31;50.29;99283.72;4975304;28;20027;-76
2023/05/11 02:01:57;;;;;;;5.72;2.15;;;;;;;13.27;50.51;99290.16;4975396;28;20049;-77
2023/05/11 02:04:23;;;;;;;4.95;2.05;;;;;;;13.28;50.40;99298.84;4959153;28;20090;-76
2023/05/11 02:06:48;;;;;;;5.63;2.10;;;;;;;13.23;50.44;99287.91;4975774;28;20054;-76
2023/05/11 02:09:17;;;;;;;3.95;2.35;;;;;;;13.23;50.40;99295.78;4975169;28;20042;-76
2023/05/11 02:11:43;;;;;;;;;;;;;;;13.21;50.69;99299.34;4959900;28;20146;-76
2023/05/11 02:14:08;;;;;;;5.68;2.30;;;;;;;13.13;50.41;99293.03;4975320;28;20409;-76
2023/05/11 02:16:34;;;;;;;5.28;2.03;;;;;;;13.12;50.68;99300.03;4959191;28;20042;-76
2023/05/11 02:18:59;;;;;;;7.78;1.83;;;;;;;13.09;50.35;99300.28;4942784;28;20039;-76
2023/05/11 02:21:26;;;;;;;5.80;1.98;;;;;;;13.08;50.77;99300.41;4974569;28;20042;-76
2023/05/11 02:23:51;;;;;;;2.78;1.90;;;;;;;13.09;50.66;99296.84;4958764;28;20121;-76
2023/05/11 02:26:17;;;;;;;5.50;1.95;;;;;;;13.09;50.73;99308.16;4959297;28;20038;-76
2023/05/11 02:28:42;;;;;;;7.10;1.80;;;;;;;13.07;50.77;99302.19;4974821;28;20043;-76
2023/05/11 02:31:15;;;;;;;6.00;1.92;;;;;;;13.02;50.82;99296.50;4974861;28;20035;-76
2023/05/11 02:33:43;;;;;;;3.17;2.10;;;;;;;13.01;50.83;99306.16;4974129;28;20043;-76
2023/05/11 02:36:09;;;;;;;5.30;1.70;;;;;;;13.00;51.02;99303.66;4958516;28;20142;-76
2023/05/11 02:38:35;;;;;;;4.90;2.03;;;;;;;13.00;50.91;99314.13;4958372;28;20043;-76
2023/05/11 02:41:05;;;;;;;3.35;1.90;;;;;;;12.97;50.94;99309.13;4959111;28;20096;-78
2023/05/11 02:43:34;;;;;;;6.15;2.05;;;;;;;12.97;50.87;99316.97;4942400;28;20038;-76
2023/05/11 02:46:05;;;;;;;4.15;1.95;;;;;;;12.95;51.03;99311.84;4974405;28;20508;-75
2023/05/11 02:48:40;;;;;;;5.65;2.00;;;;;;;12.97;51.05;99316.97;4974306;28;20034;-74
2023/05/11 02:51:06;;;;;;;3.33;2.00;;;;;;;12.93;50.88;99305.88;4959364;28;20062;-74
2023/05/11 02:53:32;;;;;;;5.63;2.33;;;;;;;12.94;50.90;99304.94;4958603;28;20093;-74
2023/05/11 02:55:57;;;;;;;5.45;2.08;;;;;;;12.96;50.95;99313.50;4958269;28;20418;-74
2023/05/11 02:58:23;;;;;;;4.53;2.03;;;;;;;13.02;50.83;99317.47;4958162;28;20109;-74
2023/05/11 03:00:48;;;;;;;4.10;2.03;;;;;;;13.04;50.88;99320.78;4957919;28;20499;-74
2023/05/11 03:03:14;;;;;;;4.53;1.88;;;;;;;13.08;50.98;99313.50;4990455;28;20038;-74
2023/05/11 03:05:39;;;;;;;5.05;2.20;;;;;;;13.06;50.80;99313.63;4973711;28;20046;-75
2023/05/11 03:08:05;;;;;;;6.72;2.10;;;;;;;13.10;50.96;99309.00;4941108;28;20043;-75
2023/05/11 03:10:30;;;;;;;5.13;2.03;;;;;;;13.15;50.92;99317.34;4990737;28;20545;-74
2023/05/11 03:12:56;;;;;;;3.92;2.05;;;;;;;13.17;50.92;99313.66;4973595;28;20049;-74
2023/05/11 03:15:21;;;;;;;5.90;1.77;;;;;;;13.20;50.71;99313.41;4973910;28;20392;-74
2023/05/11 03:17:48;;;;;;;2.72;2.00;;;;;;;13.20;50.66;99305.56;4973919;28;20047;-75
2023/05/11 03:20:14;;;;;;;3.55;1.92;;;;;;;13.28;50.65;99311.97;4941269;28;20065;-76
2023/05/11 03:22:40;;;;;;;4.28;1.80;;;;;;;13.32;50.42;99318.66;4974329;28;20118;-77
2023/05/11 03:25:06;;;;;;;8.90;1.80;;;;;;;13.42;55.10;99326.66;4957639;28;20487;-79
2023/05/11 03:27:32;;;;;;;4.00;2.10;;;;;;;13.72;64.74;99326.00;4957551;28;20042;-74
2023/05/11 03:29:57;;;;;;;13.88;2.17;;;;;;;13.76;59.55;99327.44;4973293;28;20565;-82
2023/05/11 03:32:23;;;;;;;6.10;2.10;;;;;;;13.77;57.64;99328.25;4957029;28;20084;-74
2023/05/11 03:34:48;;;;;;;3.70;1.63;;;;;;;13.77;56.20;99320.38;4973590;28;20046;-72
2023/05/11 03:37:14;;;;;;;4.07;2.08;;;;;;;13.77;55.04;99320.38;4974753;28;20050;-73
2023/05/11 03:39:40;;;;;;;3.65;1.70;;;;;;;13.86;56.59;99319.66;4973887;28;20035;-74
2023/05/11 03:42:06;;;;;;;7.40;2.10;;;;;;;13.94;56.01;99332.97;4957614;28;20070;-74
2023/05/11 03:44:31;;;;;;;7.57;1.92;;;;;;;14.01;57.17;99333.31;4957262;28;20166;-75
2023/05/11 03:46:57;;;;;;;5.07;1.80;;;;;;;14.04;55.54;99317.31;4941324;28;20046;-74
2023/05/11 03:49:22;;;;;;;5.78;1.88;;;;;;;14.10;54.49;99324.69;4973318;28;20125;-76
2023/05/11 03:51:48;;;;;;;3.70;1.83;;;;;;;14.17;53.68;99325.03;4973441;28;20038;-76
2023/05/11 03:54:13;;;;;;;5.82;2.13;;;;;;;14.26;53.20;99332.16;4972210;28;20770;-80
2023/05/11 03:56:39;;;;;;;4.05;1.88;;;;;;;14.27;52.51;99333.81;4964962;28;20034;-80
2023/05/11 03:59:05;;;;;;;3.08;1.80;;;;;;;14.29;51.90;99331.91;4959135;28;20042;-81
2023/05/11 04:01:33;;;;;;;3.75;1.90;;;;;;;14.34;51.53;99328.91;4975545;28;20038;-83
2023/05/11 04:03:58;;;;;;;;;;;;;;;14.39;50.90;99326.72;4976091;28;20046;-80
2023/05/11 04:06:24;;;;;;;3.13;1.88;;;;;;;14.40;50.48;99339.72;4993331;28;19926;-85
2023/05/11 04:08:49;;;;;;;3.25;1.70;;;;;;;14.46;50.31;99341.84;4992192;28;20042;-76
2023/05/11 04:11:15;;;;;;;3.13;1.80;;;;;;;14.50;49.99;99344.22;4992640;28;20030;-73
2023/05/11 04:13:41;;;;;;;4.72;1.90;;;;;;;14.58;49.48;99329.50;4976087;28;20045;-74
2023/05/11 04:16:06;;;;;;;5.63;2.00;;;;;;;15.11;47.84;99328.56;4976052;28;20521;-73
2023/05/11 04:18:32;;;;;;;6.47;1.83;;;;;;;15.11;47.83;99336.44;4992275;28;20038;-74
2023/05/11 04:20:58;;;;;;;3.67;1.63;;;;;;;15.23;47.54;99334.56;4993501;28;20030;-73
2023/05/11 04:23:23;;;;;;;3.85;1.65;;;;;;;15.51;46.72;99334.78;4993582;28;20489;-74
2023/05/11 04:25:55;;;;;;;4.07;1.65;;;;;;;15.50;46.65;99333.16;4975882;28;20057;-74
2023/05/11 04:28:22;;;;;;;3.97;1.83;;;;;;;15.61;46.53;99342.72;4992056;28;20061;-74
2023/05/11 04:30:54;;;;;;;4.15;1.73;;;;;;;15.71;46.16;99336.50;4976063;28;20041;-74
2023/05/11 04:33:20;;;;;;;4.45;1.83;;;;;;;15.90;45.71;99340.19;4959415;28;20070;-75
2023/05/11 04:35:45;;;;;;;3.15;1.75;;;;;;;16.05;45.21;99341.47;4975981;28;20474;-74
2023/05/11 04:38:11;;;;;;;3.30;1.55;;;;;;;16.49;44.14;99346.28;4976218;28;20049;-74
2023/05/11 04:40:36;;;;;;;5.78;1.92;;;;;;;17.60;41.86;99340.44;4975700;28;20045;-75
2023/05/11 04:43:02;;;;;;;6.90;1.60;;;;;;;18.13;40.32;99338.88;4974528;28;20489;-75
2023/05/11 04:45:27;;;;;;;2.30;1.50;;;;;;;18.20;40.02;99340.75;4974169;28;20034;-74
2023/05/11 04:47:53;;;;;;;2.92;1.60;;;;;;;18.38;39.62;99337.28;4989776;28;20046;-75
2023/05/11 04:50:18;;;;;;;3.20;1.50;;;;;;;18.50;39.11;99349.28;4955793;28;20035;-74
2023/05/11 04:52:44;;;;;;;3.05;1.50;;;;;;;18.37;39.46;99348.81;4971944;28;20133;-74
2023/05/11 04:55:10;;;;;;;3.47;1.60;;;;;;;18.33;39.42;99348.31;4973246;28;20097;-74
2023/05/11 04:57:37;;;;;;;4.20;1.50;;;;;;;18.29;39.36;99343.47;4973167;28;20034;-74
2023/05/11 05:00:07;;;;;;;6.38;1.63;;;;;;;18.20;39.40;99348.69;4971919;28;20039;-74
2023/05/11 05:02:32;;;;;;;10.48;1.70;;;;;;;18.35;38.71;99346.34;4956611;28;20102;-74
2023/05/11 05:04:59;;;;;;;5.03;1.48;;;;;;;18.34;38.62;99349.13;4972066;28;20046;-74
2023/05/11 05:07:25;;;;;;;7.95;1.63;;;;;;;18.24;38.53;99360.59;4956362;28;20050;-73
2023/05/11 05:09:50;;;;;;;6.63;1.63;;;;;;;18.14;38.56;99353.72;4988105;28;20046;-75
2023/05/11 05:12:16;;;;;;;4.32;1.63;;;;;;;18.12;38.28;99345.94;4958848;28;20097;-74
2023/05/11 05:14:41;;;;;;;17.60;2.00;;;;;;;18.11;38.08;99360.16;4958701;28;20069;-76
2023/05/11 05:17:06;;;;;;;11.15;1.67;;;;;;;18.26;37.67;99366.59;4957830;28;20049;-76
2023/05/11 05:19:32;;;;;;;5.43;1.52;;;;;;;18.14;37.52;99366.94;4991186;28;20134;-75
2023/05/11 05:21:57;;;;;;;7.95;1.58;;;;;;;18.10;37.42;99363.78;4975706;28;20493;-79
2023/05/11 05:24:26;;;;;;;10.93;1.75;;;;;;;18.29;37.20;99368.09;4976551;28;20042;-80
2023/05/11 05:26:51;;;;;;;5.50;1.65;;;;;;;18.67;36.62;99365.25;4976752;28;20066;-81
2023/05/11 05:29:18;;;;;;;3.80;1.40;;;;;;;19.39;35.24;99365.03;4976042;28;20490;-79
2023/05/11 05:31:43;;;;;;;5.18;1.60;;;;;;;19.23;35.22;99356.06;4991324;28;20068;-80
2023/05/11 05:34:09;;;;;;;7.18;1.48;;;;;;;19.21;35.05;99358.00;4975810;28;20070;-79
2023/05/11 05:36:35;;;;;;;6.03;1.70;;;;;;;19.75;34.20;99363.06;4975684;28;20046;-79
2023/05/11 05:39:02;;;;;;;12.68;1.70;;;;;;;21.45;31.42;99355.41;4993101;28;20062;-81
2023/05/11 05:41:28;;;;;;;7.00;1.50;;;;;;;22.45;29.72;99356.53;4960675;28;20139;-80
2023/05/11 05:43:54;;;;;;;4.82;1.20;;;;;;;21.92;38.69;99357.19;4980590;28;20522;-81
2023/05/11 05:46:22;;;;;;;4.07;1.27;;;;;;;21.60;34.03;99359.03;4997847;28;20045;-80
2023/05/11 05:48:47;;;;;;;8.63;1.23;;;;;;;22.09;33.24;99359.75;4975418;28;20046;-80
2023/05/11 05:51:15;;;;;;;6.50;1.40;;;;;;;21.75;33.44;99369.75;4961023;28;20545;-79
2023/05/11 05:53:42;;;;;;;7.55;1.30;;;;;;;21.82;33.78;99361.91;4994119;28;20117;-83
2023/05/11 05:56:08;;;;;;;7.32;1.45;;;;;;;22.02;32.42;99363.09;4980964;28;20398;-80
2023/05/11 05:58:33;;;;;;;5.65;1.30;;;;;;;22.09;32.07;99362.41;4994009;28;20109;-79
2023/05/11 06:00:59;;;;;;;4.35;1.30;;;;;;;22.66;30.74;99367.34;4962953;28;20035;-79
2023/05/11 06:03:25;;;;;;;2.50;1.38;;;;;;;22.08;31.25;99366.91;4981338;28;20525;-82
2023/05/11 06:05:52;;;;;;;5.85;1.60;;;;;;;21.82;31.16;99380.50;4997143;28;20042;-85
2023/05/11 06:08:18;;;;;;;8.88;1.55;;;;;;;22.07;30.58;99380.38;4963920;28;20494;-80
2023/05/11 06:10:45;;;;;;;6.60;1.60;;;;;;;23.74;28.04;99375.81;4994674;28;20038;-80
2023/05/11 06:13:10;;;;;;;8.57;1.38;;;;;;;24.97;26.51;99383.81;4978740;28;20050;-79
2023/05/11 06:15:36;;;;;;;4.55;1.30;;;;;;;24.85;26.24;99396.88;4962498;28;20038;-78
2023/05/11 06:18:01;;;;;;;3.47;1.25;;;;;;;25.39;25.30;99387.38;4978540;28;20046;-79
2023/05/11 06:20:30;;;;;;;3.58;1.27;;;;;;;24.76;25.97;99384.66;4996693;28;20045;-83
2023/05/11 06:22:58;;;;;;;4.30;1.20;;;;;;;26.65;23.98;99375.41;4981630;28;20038;-86
2023/05/11 06:25:28;;;;;;;4.43;1.08;;;;;;;27.68;22.94;99371.28;4964771;28;20076;-84
2023/05/11 06:27:54;;;;;;;6.95;1.35;;;;;;;27.76;29.08;99373.72;5005941;28;20053;-88
2023/05/11 06:30:19;;;;;;;3.90;1.23;;;;;;;28.32;27.27;99376.72;5012935;28;20034;-82
2023/05/11 06:32:46;;;;;;;4.50;1.60;;;;;;;27.61;29.10;99383.88;4987576;28;20043;-85
2023/05/11 06:35:12;;;;;;;6.60;1.80;;;;;;;28.56;27.81;99375.13;4995497;28;20046;-79
2023/05/11 06:37:37;;;;;;;8.18;1.88;;;;;;;29.14;26.58;99378.53;5047848;23;20057;-79
2023/05/11 06:40:03;;;;;;;15.35;2.55;;;;;;;28.41;28.02;99371.94;4987663;28;20029;-76
2023/05/11 06:42:29;;;;;;;20.85;5.63;;;;;;;28.80;28.07;99372.69;5000682;28;20491;-79
2023/05/11 06:44:55;;;;;;;14.77;4.15;;;;;;;29.54;26.09;99361.97;5000904;28;20037;-77
2023/05/11 06:47:20;;;;;;;11.77;3.50;;;;;;;29.77;24.95;99345.94;5001054;23;20054;-78
2023/05/11 06:49:47;;;;;;;12.63;2.97;;;;;;;29.97;25.29;99363.72;4981088;28;20408;-81
2023/05/11 06:52:12;;;;;;;15.50;3.53;;;;;;;30.26;24.78;99364.72;4965171;28;20041;-77
2023/05/11 06:54:38;;;;;;;9.93;2.45;;;;;;;29.50;24.05;99368.88;4981064;28;20050;-77
2023/05/11 06:57:04;;;;;;;7.75;2.40;;;;;;;29.55;23.96;99359.06;4997282;28;20053;-79
2023/05/11 06:59:31;;;;;;;10.43;2.10;;;;;;;29.71;24.98;99364.88;4980891;28;20056;-78
2023/05/11 07:01:56;;;;;;;8.52;2.00;;;;;;;29.97;23.91;99365.56;4997058;28;20408;-77
2023/05/11 07:04:22;;;;;;;7.28;2.08;;;;;;;29.62;24.19;99355.47;4997316;28;20041;-78
2023/05/11 07:06:47;;;;;;;10.73;2.38;;;;;;;29.10;25.16;99363.88;4980857;28;20049;-80
2023/05/11 07:09:13;;;;;;;18.35;4.82;;;;;;;28.93;27.10;99355.59;4981735;28;20527;-78
2023/05/11 07:11:39;;;;;;;18.35;4.40;;;;;;;29.37;25.28;99351.84;4996769;28;20045;-79
2023/05/11 07:14:07;;;;;;;9.15;2.78;;;;;;;29.58;24.27;99336.28;4996942;28;20077;-79
2023/05/11 07:16:36;;;;;;;10.93;2.75;;;;;;;29.84;23.17;99351.28;4997682;28;20049;-79
2023/05/11 07:19:02;;;;;;;14.00;2.42;;;;;;;30.04;22.77;99334.81;4981434;28;20104;-79
2023/05/11 07:21:28;;;;;;;11.32;2.38;;;;;;;30.27;22.58;99344.03;4980897;28;20034;-78
2023/05/11 07:23:53;;;;;;;8.85;2.50;;;;;;;30.56;22.24;99341.50;4980926;28;20068;-79
2023/05/11 07:26:20;;;;;;;3.97;1.58;;;;;;;30.58;20.91;99339.41;4997029;28;20124;-77
2023/05/11 07:28:46;;;;;;;7.60;1.70;;;;;;;30.47;20.38;99338.31;5013335;28;20048;-81
2023/05/11 07:31:11;;;;;;;6.57;1.58;;;;;;;30.29;20.36;99336.53;4976597;28;20054;-79
2023/05/11 07:33:38;;;;;;;5.25;1.33;;;;;;;29.68;20.84;99350.00;4977115;28;20077;-78
2023/05/11 07:36:04;;;;;;;7.80;1.77;;;;;;;29.86;20.53;99343.78;4995932;28;20038;-81
2023/05/11 07:38:31;;;;;;;7.18;1.55;;;;;;;29.25;21.89;99352.81;5012819;28;20417;-79
2023/05/11 07:40:59;;;;;;;7.30;1.80;;;;;;;29.20;23.43;99353.47;4996823;28;20037;-80
2023/05/11 07:43:24;;;;;;;6.07;1.77;;;;;;;29.07;23.48;99354.41;5012863;28;20307;-79
2023/05/11 07:45:51;;;;;;;3.88;1.50;;;;;;;29.19;22.62;99355.34;4980839;28;20400;-80
2023/05/11 07:48:16;;;;;;;7.20;1.42;;;;;;;28.96;22.36;99355.16;4980118;28;20102;-78
2023/05/11 07:50:45;;;;;;;8.32;1.70;;;;;;;28.51;24.11;99356.13;4946733;28;20476;-78
2023/05/11 07:53:10;;;;;;;5.72;1.75;;;;;;;28.42;23.84;99349.41;4962109;28;20532;-78
2023/05/11 07:55:36;;;;;;;5.22;1.70;;;;;;;28.37;23.57;99351.91;4960908;28;20042;-79
2023/05/11 07:58:05;;;;;;;4.35;1.65;;;;;;;27.80;25.34;99350.00;4961140;28;20054;-77
2023/05/11 08:00:32;;;;;;;8.43;2.17;;;;;;;27.26;26.65;99360.06;4961014;28;20046;-79
2023/05/11 08:03:00;;;;;;;7.75;2.13;;;;;;;27.70;26.41;99355.81;4960397;28;20046;-79
2023/05/11 08:05:25;;;;;;;5.95;1.60;;;;;;;27.25;26.35;99355.75;4960236;28;20517;-78
2023/05/11 08:07:51;;;;;;;5.45;1.98;;;;;;;26.95;27.28;99350.06;4976352;28;20100;-79
2023/05/11 08:10:18;;;;;;;9.35;1.67;;;;;;;27.61;25.46;99349.88;4976063;28;20038;-82
2023/05/11 08:12:43;;;;;;;9.40;1.65;;;;;;;27.86;24.27;99349.13;4977364;28;20081;-78
2023/05/11 08:15:09;;;;;;;7.05;1.75;;;;;;;27.16;26.03;99348.97;4925438;28;20047;-80
2023/05/11 08:17:35;;;;;;;5.97;1.38;;;;;;;26.74;26.86;99348.41;4956291;28;20035;-79
2023/05/11 08:20:05;;;;;;;7.15;1.65;;;;;;;26.32;27.38;99352.09;4940766;28;20068;-80
2023/05/11 08:22:37;;;;;;;8.30;1.30;;;;;;;25.81;28.56;99347.25;4957256;28;20034;-80
2023/05/11 08:25:04;;;;;;;7.05;2.00;;;;;;;25.59;30.11;99352.72;4944010;28;20117;-77
2023/05/11 08:27:38;;;;;;;;;;;;;;;25.54;31.93;99349.84;4958501;28;20034;-79
2023/05/11 08:30:08;;;;;;;5.82;2.00;;;;;;;25.18;31.62;99350.84;4978994;28;19918;-79
2023/05/11 08:32:41;;;;;;;6.47;1.65;;;;;;;24.96;33.34;99349.28;4976199;28;20034;-80
2023/05/11 08:35:08;;;;;;;7.63;1.83;;;;;;;25.80;32.26;99348.28;4973503;28;20042;-78
2023/05/11 08:37:36;;;;;;;;;;;;;;;26.39;30.04;99353.97;4957119;28;20058;-78
2023/05/11 08:40:03;;;;;;;9.35;1.48;;;;;;;26.94;27.86;99343.03;4956595;28;20065;-77
2023/05/11 08:42:28;;;;;;;5.65;1.25;;;;;;;26.50;28.21;99343.47;4973566;28;20042;-80
2023/05/11 08:44:55;;;;;;;8.75;1.25;;;;;;;26.14;27.36;99336.66;4957686;28;20058;-82
2023/05/11 08:47:36;;;;;;;5.47;1.30;;;;;;;26.02;26.39;99337.47;4959061;28;20062;-85
2023/05/11 08:50:09;;;;;;;3.35;1.05;;;;;;;26.90;24.97;99326.56;4975788;28;20521;-81
2023/05/11 08:52:37;;;;;;;6.40;1.17;;;;;;;27.24;24.10;99333.47;4974914;28;20043;-83
2023/05/11 08:55:04;;;;;;;3.50;0.90;;;;;;;26.66;24.15;99336.91;4957100;28;20125;-80
2023/05/11 08:57:33;;;;;;;6.30;1.13;;;;;;;26.61;25.41;99331.31;4957255;28;20445;-79
2023/05/11 09:00:04;;;;;;;3.65;1.00;;;;;;;27.08;24.62;99332.06;4957112;28;20027;-78
2023/05/11 09:02:33;;;;;;;6.05;1.15;;;;;;;27.39;24.07;99309.13;4957576;28;20154;-79
2023/05/11 09:05:02;;;;;;;3.40;0.90;;;;;;;27.47;24.39;99318.78;4960386;28;20553;-80
2023/05/11 09:07:28;;;;;;;7.32;1.13;;;;;;;26.83;24.87;99310.50;4959744;28;20039;-80
2023/05/11 09:09:53;;;;;;;7.38;1.10;;;;;;;26.86;26.00;99318.13;4942939;28;20524;-79
2023/05/11 09:12:19;;;;;;;3.72;1.40;;;;;;;27.11;26.08;99317.44;4941227;28;20043;-82
2023/05/11 09:14:46;;;;;;;6.65;1.15;;;;;;;27.35;25.10;99302.53;4957273;28;20037;-82
2023/05/11 09:17:12;;;;;;;4.25;1.35;;;;;;;27.31;26.88;99314.75;4973184;28;20034;-78
2023/05/11 09:19:56;;;;;;;4.55;1.05;;;;;;;26.71;27.19;99306.84;4957089;28;20026;-77
2023/05/11 09:22:21;;;;;;;2.88;0.95;;;;;;;26.74;27.40;99306.41;4940788;28;20413;-80
2023/05/11 09:24:47;;;;;;;3.67;1.15;;;;;;;27.06;26.85;99303.88;4940870;28;20131;-79
2023/05/11 09:27:13;;;;;;;4.60;0.88;;;;;;;27.10;27.10;99298.91;4940871;28;20498;-78
2023/05/11 09:29:38;;;;;;;4.35;1.15;;;;;;;26.86;27.57;99299.38;4941997;28;20035;-77
2023/05/11 09:32:04;;;;;;;9.30;1.00;;;;;;;26.65;27.77;99302.31;4963539;28;20038;-78
2023/05/11 09:34:30;;;;;;;3.97;1.02;;;;;;;26.84;27.76;99287.25;4978756;28;20065;-80
2023/05/11 09:36:56;;;;;;;5.35;1.20;;;;;;;27.01;27.67;99290.25;4963841;28;20042;-79
2023/05/11 09:39:34;;;;;;;3.47;0.82;;;;;;;27.05;26.40;99289.63;4952979;28;20070;-85
2023/05/11 09:42:16;;;;;;;4.32;0.90;;;;;;;26.83;24.96;99281.03;4953413;28;20047;-82
2023/05/11 09:44:44;;;;;;;4.07;0.75;;;;;;;26.48;25.28;99291.97;4968200;28;20034;-83
2023/05/11 09:47:16;;;;;;;;;;;;;;;26.27;25.09;99287.69;4954629;28;20177;-83
2023/05/11 09:49:43;;;;;;;8.90;1.25;;;;;;;26.15;25.10;99279.41;4983258;28;19917;-82
2023/05/11 09:52:16;;;;;;;3.45;0.95;;;;;;;25.71;25.72;99290.66;4985400;28;20044;-81
2023/05/11 09:54:49;;;;;;;2.03;1.00;;;;;;;25.40;25.75;99282.13;4983247;28;20101;-79
2023/05/11 09:57:28;;;;;;;3.40;0.90;;;;;;;25.48;25.69;99281.13;4965371;28;20077;-80
2023/05/11 09:59:55;;;;;;;4.07;1.00;;;;;;;25.82;24.87;99277.53;4949020;28;20038;-78
2023/05/11 10:02:24;;;;;;;2.08;0.80;;;;;;;26.12;24.40;99271.81;4980389;28;20038;-80
2023/05/11 10:04:51;;;;;;;4.07;0.80;;;;;;;26.11;24.38;99272.03;4965067;28;20034;-81
2023/05/11 10:07:33;;;;;;;3.28;1.00;;;;;;;25.78;24.61;99254.88;4964165;28;20058;-82
2023/05/11 10:10:00;;;;;;;2.70;0.90;;;;;;;25.79;24.79;99263.72;4964787;28;20034;-80
2023/05/11 10:12:26;;;;;;;5.05;0.80;;;;;;;25.66;24.83;99259.19;4964406;28;20041;-83
2023/05/11 10:14:55;;;;;;;3.00;0.90;;;;;;;25.94;24.32;99266.22;4948768;28;20050;-80
2023/05/11 10:17:20;;;;;;;4.50;0.80;;;;;;;25.91;24.33;99270.13;4963506;28;20034;-84
2023/05/11 10:19:50;;;;;;;6.45;1.02;;;;;;;25.77;24.51;99268.47;4947834;28;20560;-81
2023/05/11 10:22:17;;;;;;;1.77;0.80;;;;;;;25.62;24.14;99255.28;4947672;28;20039;-82
2023/05/11 10:24:43;;;;;;;5.53;0.80;;;;;;;25.57;24.47;99260.38;4947663;28;20046;-81
2023/05/11 10:27:10;;;;;;;2.58;0.70;;;;;;;25.31;24.68;99261.97;4964056;28;20441;-79
2023/05/11 10:29:36;;;;;;;7.43;1.20;;;;;;;25.18;24.99;99259.22;4947469;28;20133;-80
2023/05/11 10:32:03;;;;;;;2.65;1.00;;;;;;;25.08;25.01;99256.88;4963444;28;20034;-81
2023/05/11 10:34:28;;;;;;;3.33;0.80;;;;;;;25.11;25.14;99256.50;4947773;28;20047;-84
2023/05/11 10:36:56;;;;;;;3.03;0.80;;;;;;;24.96;25.32;99248.63;4963973;28;20077;-81
2023/05/11 10:39:22;;;;;;;2.72;0.77;;;;;;;25.04;25.14;99263.66;4963785;28;20077;-80
2023/05/11 10:42:05;;;;;;;3.35;0.98;;;;;;;25.01;25.03;99248.03;4961398;28;20034;-78
2023/05/11 10:44:45;;;;;;;2.53;1.00;;;;;;;24.92;25.26;99261.56;4978534;28;20058;-80
2023/05/11 10:47:49;;;;;;;5.35;1.23;;;;;;;25.01;25.26;99246.19;4978353;28;20058;-79
2023/05/11 10:50:36;;;;;;;4.10;0.98;;;;;;;25.00;25.05;99252.56;4978285;28;20030;-79
2023/05/11 10:53:37;;;;;;;7.30;1.13;;;;;;;24.80;25.43;99260.47;4963184;28;20042;-82
2023/05/11 10:56:31;;;;;;;4.15;1.00;;;;;;;24.53;25.52;99251.44;4900911;29;20048;-78
2023/05/11 10:59:13;;;;;;;6.15;1.20;;;;;;;24.52;25.80;99253.25;4911740;29;20059;-79
2023/05/11 11:01:38;;;;;;;5.63;1.10;;;;;;;24.46;25.78;99248.72;4885545;29;20041;-80
2023/05/11 11:04:08;;;;;;;3.55;1.10;;;;;;;24.29;26.21;99253.53;4900517;29;20048;-79
2023/05/11 11:06:36;;;;;;;4.07;1.00;;;;;;;24.25;26.26;99252.25;4900625;29;20103;-79
2023/05/11 11:09:03;;;;;;;2.97;1.13;;;;;;;24.18;26.41;99246.88;4885683;29;20083;-79
2023/05/11 11:11:45;;;;;;;4.83;0.97;;;;;;;24.07;26.54;99243.88;4870320;29;20063;-79
2023/05/11 11:14:14;;;;;;;3.53;0.98;;;;;;;23.81;26.88;99245.28;4884762;29;20484;-80
2023/05/11 11:17:14;;;;;;;3.67;0.95;;;;;;;23.63;26.74;99235.88;4900939;29;20043;-84
2023/05/11 11:19:39;;;;;;;3.92;0.93;;;;;;;23.58;26.77;99226.81;4916219;29;20051;-79
2023/05/11 11:22:05;;;;;;;2.53;0.98;;;;;;;23.52;26.65;99222.25;4885274;29;20423;-78
2023/05/11 11:24:37;;;;;;;6.65;1.10;;;;;;;23.47;26.70;99226.28;4869391;29;20392;-78
2023/05/11 11:27:03;;;;;;;4.53;0.80;;;;;;;23.47;26.73;99217.47;4917546;29;20051;-79
2023/05/11 11:29:29;;;;;;;6.32;0.98;;;;;;;23.46;26.53;99218.50;4900995;29;20044;-79
2023/05/11 11:32:03;;;;;;;4.65;1.08;;;;;;;23.54;26.36;99221.03;4879031;28;20074;-78
2023/05/11 11:34:29;;;;;;;7.10;1.20;;;;;;;23.39;26.66;99212.25;4963729;28;20046;-81
2023/05/11 11:36:54;;;;;;;6.82;1.10;;;;;;;23.29;26.67;99220.53;4978123;28;20109;-80